sensor_id;sensor_type;location;lat;lon;timestamp;pressure;altitude;pressure_sealevel;temperature;humidity
50933;BME280;36921;49.006;9.292;2023-05-29T00:01:58;98764.13;;;14.08;100.00
50933;BME280;36921;49.006;9.292;2023-05-29T00:04:23;98762.72;;;14.05;100.00
50933;BME280;36921;49.006;9.292;2023-05-29T00:06:49;98773.06;;;13.96;100.00
50933;BME280;36921;49.006;9.292;2023-05-29T00:09:15;98760.13;;;13.92;100.00
50933;BME280;36921;49.006;9.292;2023-05-29T00:11:40;98768.97;;;13.87;100.00
50933;BME280;36921;49.006;9.292;2023-05-29T00:14:05;98768.97;;;13.87;100.00
50933;BME280;36921;49.006;9.292;2023-05-29T00:16:31;98767.53;;;13.85;100.00
50933;BME280;36921;49.006;9.292;2023-05-29T00:18:56;98751.06;;;13.79;100.00
50933;BME280;36921;49.006;9.292;2023-05-29T00:21:24;98761.16;;;13.72;100.00
50933;BME280;36921;49.006;9.292;2023-05-29T00:23:49;98761.56;;;13.76;100.00
50933;BME280;36921;49.006;9.292;2023-05-29T00:26:15;98750.53;;;13.71;100.00
50933;BME280;36921;49.006;9.292;2023-05-29T00:28:42;98756.13;;;13.76;100.00
50933;BME280;36921;49.006;9.292;2023-05-29T00:31:07;98744.28;;;13.89;100.00
50933;BME280;36921;49.006;9.292;2023-05-29T00:33:33;98762.28;;;13.83;100.00
50933;BME280;36921;49.006;9.292;2023-05-29T00:35:58;98749.09;;;13.87;100.00
50933;BME280;36921;49.006;9.292;2023-05-29T00:38:24;98743.50;;;13.81;100.00
50933;BME280;36921;49.006;9.292;2023-05-29T00:40:49;98753.25;;;13.89;100.00
50933;BME280;36921;49.006;9.292;2023-05-29T00:43:14;98760.13;;;13.73;100.00
50933;BME280;36921;49.006;9.292;2023-05-29T00:45:40;98759.00;;;13.37;100.00
50933;BME280;36921;49.006;9.292;2023-05-29T00:48:06;98760.44;;;13.08;100.00
50933;BME280;36921;49.006;9.292;2023-05-29T00:50:32;98755.16;;;12.88;100.00
50933;BME280;36921;49.006;9.292;2023-05-29T00:52:59;98754.22;;;12.76;100.00
50933;BME280;36921;49.006;9.292;2023-05-29T00:55:27;98752.00;;;12.60;100.00
50933;BME280;36921;49.006;9.292;2023-05-29T00:57:53;98763.53;;;12.48;100.00
50933;BME280;36921;49.006;9.292;2023-05-29T01:00:19;98760.06;;;12.35;100.00
50933;BME280;36921;49.006;9.292;2023-05-29T01:02:46;98765.50;;;12.28;100.00
50933;BME280;36921;49.006;9.292;2023-05-29T01:05:12;98760.53;;;12.25;100.00
50933;BME280;36921;49.006;9.292;2023-05-29T01:07:38;98747.53;;;12.34;100.00
50933;BME280;36921;49.006;9.292;2023-05-29T01:10:05;98755.03;;;12.38;100.00
50933;BME280;36921;49.006;9.292;2023-05-29T01:12:38;98753.81;;;12.34;100.00
50933;BME280;36921;49.006;9.292;2023-05-29T01:15:21;98751.75;;;12.30;100.00
50933;BME280;36921;49.006;9.292;2023-05-29T01:28:51;98755.81;;;12.00;100.00
50933;BME280;36921;49.006;9.292;2023-05-29T01:31:19;98750.22;;;11.89;100.00
50933;BME280;36921;49.006;9.292;2023-05-29T01:33:56;98756.69;;;11.74;100.00
50933;BME280;36921;49.006;9.292;2023-05-29T01:36:22;98750.88;;;11.64;100.00
50933;BME280;36921;49.006;9.292;2023-05-29T01:38:49;98761.09;;;11.62;100.00
50933;BME280;36921;49.006;9.292;2023-05-29T01:41:16;98754.22;;;11.59;100.00
50933;BME280;36921;49.006;9.292;2023-05-29T01:43:43;98768.00;;;11.51;100.00
50933;BME280;36921;49.006;9.292;2023-05-29T01:46:10;98764.03;;;11.47;100.00
50933;BME280;36921;49.006;9.292;2023-05-29T01:48:36;98767.78;;;11.39;100.00
50933;BME280;36921;49.006;9.292;2023-05-29T01:51:02;98769.47;;;11.40;100.00
50933;BME280;36921;49.006;9.292;2023-05-29T01:53:27;98767.38;;;11.36;100.00
50933;BME280;36921;49.006;9.292;2023-05-29T01:55:53;98766.31;;;11.37;100.00
50933;BME280;36921;49.006;9.292;2023-05-29T01:58:20;98767.78;;;11.33;100.00
50933;BME280;36921;49.006;9.292;2023-05-29T02:00:47;98763.84;;;11.22;100.00
50933;BME280;36921;49.006;9.292;2023-05-29T02:03:12;98765.50;;;11.23;100.00
50933;BME280;36921;49.006;9.292;2023-05-29T02:05:38;98763.22;;;11.27;100.00
50933;BME280;36921;49.006;9.292;2023-05-29T02:08:03;98763.00;;;11.22;100.00
50933;BME280;36921;49.006;9.292;2023-05-29T02:10:29;98765.50;;;11.16;100.00
50933;BME280;36921;49.006;9.292;2023-05-29T02:12:55;98756.97;;;11.13;100.00
50933;BME280;36921;49.006;9.292;2023-05-29T02:15:20;98762.59;;;11.11;100.00
50933;BME280;36921;49.006;9.292;2023-05-29T02:17:46;98762.59;;;10.98;100.00
50933;BME280;36921;49.006;9.292;2023-05-29T02:20:11;98760.28;;;10.88;100.00
50933;BME280;36921;49.006;9.292;2023-05-29T02:22:36;98765.88;;;10.87;100.00
50933;BME280;36921;49.006;9.292;2023-05-29T02:25:02;98770.66;;;10.78;100.00
50933;BME280;36921;49.006;9.292;2023-05-29T02:27:27;98771.91;;;10.75;100.00
50933;BME280;36921;49.006;9.292;2023-05-29T02:29:53;98774.81;;;10.67;100.00
50933;BME280;36921;49.006;9.292;2023-05-29T02:32:18;98766.47;;;10.62;100.00
50933;BME280;36921;49.006;9.292;2023-05-29T02:34:44;98766.06;;;10.65;100.00
50933;BME280;36921;49.006;9.292;2023-05-29T02:37:10;98770.44;;;10.60;100.00
50933;BME280;36921;49.006;9.292;2023-05-29T02:39:36;98768.53;;;10.53;100.00
50933;BME280;36921;49.006;9.292;2023-05-29T02:42:01;98760.22;;;10.55;100.00
50933;BME280;36921;49.006;9.292;2023-05-29T02:44:26;98768.97;;;10.57;100.00
50933;BME280;36921;49.006;9.292;2023-05-29T02:46:52;98764.97;;;10.53;100.00
50933;BME280;36921;49.006;9.292;2023-05-29T02:49:17;98755.44;;;10.57;100.00
50933;BME280;36921;49.006;9.292;2023-05-29T02:51:42;98762.09;;;10.48;100.00
50933;BME280;36921;49.006;9.292;2023-05-29T02:54:08;98765.81;;;10.47;100.00
50933;BME280;36921;49.006;9.292;2023-05-29T02:56:33;98768.88;;;10.37;100.00
50933;BME280;36921;49.006;9.292;2023-05-29T02:58:59;98769.53;;;10.33;100.00
50933;BME280;36921;49.006;9.292;2023-05-29T03:01:25;98776.50;;;10.27;100.00
50933;BME280;36921;49.006;9.292;2023-05-29T03:03:50;98777.63;;;10.33;100.00
50933;BME280;36921;49.006;9.292;2023-05-29T03:06:16;98779.63;;;10.24;100.00
50933;BME280;36921;49.006;9.292;2023-05-29T03:08:43;98778.16;;;10.21;100.00
50933;BME280;36921;49.006;9.292;2023-05-29T03:11:10;98789.59;;;10.17;100.00
50933;BME280;36921;49.006;9.292;2023-05-29T03:13:37;98782.72;;;10.14;100.00
50933;BME280;36921;49.006;9.292;2023-05-29T03:16:02;98791.22;;;10.11;100.00
50933;BME280;36921;49.006;9.292;2023-05-29T03:18:28;98787.50;;;10.12;100.00
50933;BME280;36921;49.006;9.292;2023-05-29T03:20:54;98782.25;;;10.04;100.00
50933;BME280;36921;49.006;9.292;2023-05-29T03:23:20;98779.34;;;10.05;100.00
50933;BME280;36921;49.006;9.292;2023-05-29T03:25:46;98776.22;;;10.08;100.00
50933;BME280;36921;49.006;9.292;2023-05-29T03:28:11;98780.81;;;10.08;100.00
50933;BME280;36921;49.006;9.292;2023-05-29T03:30:37;98776.22;;;10.08;100.00
50933;BME280;36921;49.006;9.292;2023-05-29T03:33:02;98783.50;;;10.08;100.00
50933;BME280;36921;49.006;9.292;2023-05-29T03:35:29;98781.63;;;10.02;100.00
50933;BME280;36921;49.006;9.292;2023-05-29T03:37:55;98778.91;;;10.02;100.00
50933;BME280;36921;49.006;9.292;2023-05-29T03:40:22;98777.22;;;9.94;100.00
50933;BME280;36921;49.006;9.292;2023-05-29T03:42:48;98777.84;;;9.96;100.00
50933;BME280;36921;49.006;9.292;2023-05-29T03:45:13;98777.03;;;9.96;100.00
50933;BME280;36921;49.006;9.292;2023-05-29T03:47:39;98783.84;;;9.92;100.00
50933;BME280;36921;49.006;9.292;2023-05-29T03:50:05;98779.88;;;9.87;100.00
50933;BME280;36921;49.006;9.292;2023-05-29T03:52:30;98786.97;;;9.95;100.00
50933;BME280;36921;49.006;9.292;2023-05-29T03:54:55;98791.22;;;10.11;100.00
50933;BME280;36921;49.006;9.292;2023-05-29T03:57:21;98791.84;;;10.13;100.00
50933;BME280;36921;49.006;9.292;2023-05-29T03:59:46;98791.31;;;10.24;100.00
50933;BME280;36921;49.006;9.292;2023-05-29T04:02:12;98785.50;;;10.27;100.00
50933;BME280;36921;49.006;9.292;2023-05-29T04:04:37;98783.66;;;10.35;100.00
50933;BME280;36921;49.006;9.292;2023-05-29T04:07:04;98784.50;;;10.42;100.00
50933;BME280;36921;49.006;9.292;2023-05-29T04:09:30;98792.03;;;10.53;100.00
50933;BME280;36921;49.006;9.292;2023-05-29T04:11:55;98797.91;;;10.63;100.00
50933;BME280;36921;49.006;9.292;2023-05-29T04:14:21;98795.03;;;10.78;100.00
50933;BME280;36921;49.006;9.292;2023-05-29T04:16:46;98796.94;;;10.91;100.00
50933;BME280;36921;49.006;9.292;2023-05-29T04:19:12;98804.44;;;11.02;100.00
50933;BME280;36921;49.006;9.292;2023-05-29T04:21:37;98791.94;;;11.01;100.00
50933;BME280;36921;49.006;9.292;2023-05-29T04:24:03;98793.00;;;11.13;100.00
50933;BME280;36921;49.006;9.292;2023-05-29T04:26:28;98819.88;;;11.28;100.00
50933;BME280;36921;49.006;9.292;2023-05-29T04:28:53;98797.59;;;11.33;100.00
50933;BME280;36921;49.006;9.292;2023-05-29T04:31:23;98805.50;;;11.41;100.00
50933;BME280;36921;49.006;9.292;2023-05-29T04:33:51;98808.00;;;11.49;100.00
50933;BME280;36921;49.006;9.292;2023-05-29T04:36:21;98810.72;;;11.49;100.00
50933;BME280;36921;49.006;9.292;2023-05-29T04:38:48;98819.88;;;11.55;100.00
50933;BME280;36921;49.006;9.292;2023-05-29T04:41:16;98820.72;;;11.62;100.00
50933;BME280;36921;49.006;9.292;2023-05-29T04:43:41;98812.97;;;11.66;100.00
50933;BME280;36921;49.006;9.292;2023-05-29T04:46:07;98805.28;;;11.62;100.00
50933;BME280;36921;49.006;9.292;2023-05-29T04:48:38;98803.19;;;11.65;100.00
50933;BME280;36921;49.006;9.292;2023-05-29T04:51:05;98790.50;;;11.58;100.00
50933;BME280;36921;49.006;9.292;2023-05-29T04:53:31;98824.44;;;11.81;100.00
50933;BME280;36921;49.006;9.292;2023-05-29T04:55:56;98825.31;;;11.95;100.00
50933;BME280;36921;49.006;9.292;2023-05-29T04:58:21;98816.69;;;12.11;100.00
50933;BME280;36921;49.006;9.292;2023-05-29T05:00:49;98819.19;;;12.19;100.00
50933;BME280;36921;49.006;9.292;2023-05-29T05:03:14;98823.50;;;12.34;100.00
50933;BME280;36921;49.006;9.292;2023-05-29T05:05:41;98828.84;;;12.54;100.00
50933;BME280;36921;49.006;9.292;2023-05-29T05:08:08;98825.72;;;12.57;100.00
50933;BME280;36921;49.006;9.292;2023-05-29T05:10:34;98820.38;;;12.82;100.00
50933;BME280;36921;49.006;9.292;2023-05-29T05:13:00;98827.78;;;13.00;100.00
50933;BME280;36921;49.006;9.292;2023-05-29T05:15:28;98845.88;;;13.12;100.00
50933;BME280;36921;49.006;9.292;2023-05-29T05:17:53;98836.88;;;13.12;100.00
50933;BME280;36921;49.006;9.292;2023-05-29T05:20:18;98828.47;;;13.27;100.00
50933;BME280;36921;49.006;9.292;2023-05-29T05:22:44;98834.97;;;13.51;100.00
50933;BME280;36921;49.006;9.292;2023-05-29T05:25:09;98827.19;;;13.54;100.00
50933;BME280;36921;49.006;9.292;2023-05-29T05:27:35;98844.50;;;13.85;100.00
50933;BME280;36921;49.006;9.292;2023-05-29T05:30:00;98845.19;;;13.99;100.00
50933;BME280;36921;49.006;9.292;2023-05-29T05:32:26;98835.84;;;14.13;100.00
50933;BME280;36921;49.006;9.292;2023-05-29T05:34:51;98849.03;;;14.53;100.00
50933;BME280;36921;49.006;9.292;2023-05-29T05:37:17;98843.81;;;14.52;100.00
50933;BME280;36921;49.006;9.292;2023-05-29T05:39:42;98841.09;;;14.52;100.00
50933;BME280;36921;49.006;9.292;2023-05-29T05:42:08;98837.38;;;14.64;100.00
50933;BME280;36921;49.006;9.292;2023-05-29T05:44:33;98847.06;;;14.79;100.00
50933;BME280;36921;49.006;9.292;2023-05-29T05:46:59;98837.75;;;14.98;100.00
50933;BME280;36921;49.006;9.292;2023-05-29T05:49:24;98851.75;;;15.32;100.00
50933;BME280;36921;49.006;9.292;2023-05-29T05:51:49;98869.22;;;15.54;100.00
50933;BME280;36921;49.006;9.292;2023-05-29T05:54:15;98862.88;;;15.84;100.00
50933;BME280;36921;49.006;9.292;2023-05-29T05:56:41;98866.91;;;16.29;100.00
50933;BME280;36921;49.006;9.292;2023-05-29T05:59:06;98846.47;;;16.55;100.00
50933;BME280;36921;49.006;9.292;2023-05-29T06:01:32;98857.78;;;16.87;100.00
50933;BME280;36921;49.006;9.292;2023-05-29T06:03:58;98865.63;;;16.95;100.00
50933;BME280;36921;49.006;9.292;2023-05-29T06:06:23;98884.31;;;16.63;100.00
50933;BME280;36921;49.006;9.292;2023-05-29T06:08:49;98877.38;;;16.96;100.00
50933;BME280;36921;49.006;9.292;2023-05-29T06:11:14;98879.34;;;17.12;100.00
50933;BME280;36921;49.006;9.292;2023-05-29T06:13:40;98882.34;;;17.73;100.00
50933;BME280;36921;49.006;9.292;2023-05-29T06:16:05;98875.56;;;18.09;100.00
50933;BME280;36921;49.006;9.292;2023-05-29T06:18:31;98883.97;;;18.42;100.00
50933;BME280;36921;49.006;9.292;2023-05-29T06:20:56;98862.59;;;18.60;100.00
50933;BME280;36921;49.006;9.292;2023-05-29T06:23:21;98870.38;;;18.91;100.00
50933;BME280;36921;49.006;9.292;2023-05-29T06:25:47;98872.13;;;19.24;100.00
50933;BME280;36921;49.006;9.292;2023-05-29T06:28:13;98896.34;;;19.59;100.00
50933;BME280;36921;49.006;9.292;2023-05-29T06:30:39;98880.66;;;19.82;100.00
50933;BME280;36921;49.006;9.292;2023-05-29T06:33:04;98886.66;;;20.11;100.00
50933;BME280;36921;49.006;9.292;2023-05-29T06:35:30;98892.94;;;20.44;100.00
50933;BME280;36921;49.006;9.292;2023-05-29T06:37:56;98878.59;;;20.89;100.00
50933;BME280;36921;49.006;9.292;2023-05-29T06:40:21;98881.84;;;21.64;93.27
50933;BME280;36921;49.006;9.292;2023-05-29T06:42:47;98904.44;;;23.68;79.59
50933;BME280;36921;49.006;9.292;2023-05-29T06:45:12;98878.25;;;26.01;65.45
50933;BME280;36921;49.006;9.292;2023-05-29T06:47:41;98884.56;;;27.72;57.62
50933;BME280;36921;49.006;9.292;2023-05-29T06:50:07;98878.22;;;29.45;52.54
50933;BME280;36921;49.006;9.292;2023-05-29T06:52:32;98876.44;;;30.66;49.27
50933;BME280;36921;49.006;9.292;2023-05-29T06:54:58;98871.63;;;30.84;46.43
50933;BME280;36921;49.006;9.292;2023-05-29T06:57:24;98881.06;;;31.51;44.59
50933;BME280;36921;49.006;9.292;2023-05-29T06:59:49;98886.97;;;31.29;43.16
50933;BME280;36921;49.006;9.292;2023-05-29T07:02:15;98902.53;;;32.22;43.68
50933;BME280;36921;49.006;9.292;2023-05-29T07:04:40;98881.44;;;32.70;41.15
50933;BME280;36921;49.006;9.292;2023-05-29T07:07:06;98884.31;;;33.48;41.40
50933;BME280;36921;49.006;9.292;2023-05-29T07:09:31;98889.97;;;34.76;38.75
50933;BME280;36921;49.006;9.292;2023-05-29T07:11:56;98887.19;;;35.43;36.72
50933;BME280;36921;49.006;9.292;2023-05-29T07:14:22;98878.69;;;36.14;36.93
50933;BME280;36921;49.006;9.292;2023-05-29T07:16:47;98892.34;;;36.77;35.75
50933;BME280;36921;49.006;9.292;2023-05-29T07:19:12;98891.25;;;35.81;34.74
50933;BME280;36921;49.006;9.292;2023-05-29T07:21:39;98887.03;;;36.99;34.34
50933;BME280;36921;49.006;9.292;2023-05-29T07:24:04;98881.19;;;36.84;34.10
50933;BME280;36921;49.006;9.292;2023-05-29T07:26:30;98882.91;;;36.93;33.49
50933;BME280;36921;49.006;9.292;2023-05-29T07:28:57;98868.63;;;37.58;33.19
50933;BME280;36921;49.006;9.292;2023-05-29T07:31:22;98880.22;;;38.51;32.35
50933;BME280;36921;49.006;9.292;2023-05-29T07:33:47;98880.78;;;38.26;32.79
50933;BME280;36921;49.006;9.292;2023-05-29T07:36:15;98900.47;;;36.82;33.56
50933;BME280;36921;49.006;9.292;2023-05-29T07:38:42;98886.28;;;37.52;32.69
50933;BME280;36921;49.006;9.292;2023-05-29T07:41:07;98888.66;;;37.49;32.94
50933;BME280;36921;49.006;9.292;2023-05-29T07:43:32;98886.09;;;37.67;32.49
50933;BME280;36921;49.006;9.292;2023-05-29T07:45:57;98891.63;;;37.90;32.52
50933;BME280;36921;49.006;9.292;2023-05-29T07:48:23;98889.13;;;38.49;31.46
50933;BME280;36921;49.006;9.292;2023-05-29T07:50:48;98883.28;;;39.24;31.56
50933;BME280;36921;49.006;9.292;2023-05-29T07:53:14;98885.19;;;39.64;31.08
50933;BME280;36921;49.006;9.292;2023-05-29T07:55:40;98881.34;;;40.12;30.78
50933;BME280;36921;49.006;9.292;2023-05-29T07:58:05;98887.19;;;39.05;31.23
50933;BME280;36921;49.006;9.292;2023-05-29T08:00:31;98881.41;;;37.79;31.21
50933;BME280;36921;49.006;9.292;2023-05-29T08:02:56;98887.63;;;39.73;31.11
50933;BME280;36921;49.006;9.292;2023-05-29T08:05:22;98897.66;;;39.01;30.51
50933;BME280;36921;49.006;9.292;2023-05-29T08:07:48;98881.97;;;39.73;30.98
50933;BME280;36921;49.006;9.292;2023-05-29T08:10:13;98887.16;;;40.91;29.97
50933;BME280;36921;49.006;9.292;2023-05-29T08:12:39;98878.63;;;41.34;29.46
50933;BME280;36921;49.006;9.292;2023-05-29T08:15:04;98877.00;;;40.61;30.02
50933;BME280;36921;49.006;9.292;2023-05-29T08:17:30;98879.75;;;40.22;30.58
50933;BME280;36921;49.006;9.292;2023-05-29T08:19:56;98892.44;;;39.62;30.17
50933;BME280;36921;49.006;9.292;2023-05-29T08:22:28;98895.41;;;39.83;30.60
50933;BME280;36921;49.006;9.292;2023-05-29T08:24:53;98881.03;;;40.60;30.10
50933;BME280;36921;49.006;9.292;2023-05-29T08:27:19;98883.50;;;40.87;29.98
50933;BME280;36921;49.006;9.292;2023-05-29T08:29:44;98892.44;;;41.21;29.60
50933;BME280;36921;49.006;9.292;2023-05-29T08:32:09;98883.88;;;40.64;29.82
50933;BME280;36921;49.006;9.292;2023-05-29T08:34:35;98870.50;;;41.36;29.35
50933;BME280;36921;49.006;9.292;2023-05-29T08:37:00;98889.59;;;40.89;29.25
50933;BME280;36921;49.006;9.292;2023-05-29T08:39:25;98888.00;;;41.16;29.32
50933;BME280;36921;49.006;9.292;2023-05-29T08:41:59;98886.75;;;41.28;28.95
50933;BME280;36921;49.006;9.292;2023-05-29T08:44:29;98865.06;;;41.88;28.89
50933;BME280;36921;49.006;9.292;2023-05-29T08:46:55;98879.88;;;40.76;29.52
50933;BME280;36921;49.006;9.292;2023-05-29T08:49:21;98879.00;;;41.57;28.88
50933;BME280;36921;49.006;9.292;2023-05-29T08:51:57;98878.25;;;41.17;28.72
50933;BME280;36921;49.006;9.292;2023-05-29T08:54:30;98872.59;;;40.85;29.10
50933;BME280;36921;49.006;9.292;2023-05-29T08:56:56;98851.44;;;40.29;29.64
50933;BME280;36921;49.006;9.292;2023-05-29T08:59:23;98865.56;;;38.83;29.37
50933;BME280;36921;49.006;9.292;2023-05-29T09:01:50;98864.47;;;40.69;27.83
50933;BME280;36921;49.006;9.292;2023-05-29T09:04:15;98871.69;;;39.40;27.19
50933;BME280;36921;49.006;9.292;2023-05-29T09:06:42;98869.88;;;38.66;27.31
50933;BME280;36921;49.006;9.292;2023-05-29T09:09:09;98872.31;;;37.96;27.44
50933;BME280;36921;49.006;9.292;2023-05-29T09:11:35;98862.34;;;38.02;27.17
50933;BME280;36921;49.006;9.292;2023-05-29T09:14:00;98876.53;;;37.76;26.89
50933;BME280;36921;49.006;9.292;2023-05-29T09:16:27;98881.28;;;38.76;27.58
50933;BME280;36921;49.006;9.292;2023-05-29T09:19:04;98873.72;;;40.30;27.04
50933;BME280;36921;49.006;9.292;2023-05-29T09:21:30;98869.72;;;38.92;27.41
50933;BME280;36921;49.006;9.292;2023-05-29T09:24:03;98859.69;;;39.02;26.62
50933;BME280;36921;49.006;9.292;2023-05-29T09:26:28;98874.00;;;38.38;26.96
50933;BME280;36921;49.006;9.292;2023-05-29T09:28:55;98866.28;;;39.24;27.11
50933;BME280;36921;49.006;9.292;2023-05-29T09:31:20;98865.84;;;39.15;26.13
50933;BME280;36921;49.006;9.292;2023-05-29T09:33:47;98868.47;;;38.08;27.16
50933;BME280;36921;49.006;9.292;2023-05-29T09:36:21;98886.66;;;38.48;27.05
50933;BME280;36921;49.006;9.292;2023-05-29T09:38:47;98887.81;;;38.06;27.68
50933;BME280;36921;49.006;9.292;2023-05-29T09:41:12;98865.75;;;38.19;27.91
50933;BME280;36921;49.006;9.292;2023-05-29T09:43:38;98879.97;;;37.35;27.34
50933;BME280;36921;49.006;9.292;2023-05-29T09:46:06;98884.59;;;38.07;27.25
50933;BME280;36921;49.006;9.292;2023-05-29T09:48:32;98888.88;;;37.64;27.31
50933;BME280;36921;49.006;9.292;2023-05-29T09:50:57;98853.53;;;37.47;27.51
50933;BME280;36921;49.006;9.292;2023-05-29T09:53:27;98888.34;;;38.56;27.17
50933;BME280;36921;49.006;9.292;2023-05-29T09:55:57;98881.09;;;38.99;26.39
50933;BME280;36921;49.006;9.292;2023-05-29T09:58:24;98877.47;;;39.03;26.48
50933;BME280;36921;49.006;9.292;2023-05-29T10:00:51;98884.38;;;39.71;26.67
50933;BME280;36921;49.006;9.292;2023-05-29T10:03:17;98866.19;;;37.90;27.55
50933;BME280;36921;49.006;9.292;2023-05-29T10:05:54;98870.84;;;38.88;26.28
50933;BME280;36921;49.006;9.292;2023-05-29T10:08:25;98865.00;;;38.63;26.97
50933;BME280;36921;49.006;9.292;2023-05-29T10:10:59;98875.88;;;39.09;26.14
50933;BME280;36921;49.006;9.292;2023-05-29T10:13:28;98865.84;;;39.15;27.04
50933;BME280;36921;49.006;9.292;2023-05-29T10:15:54;98872.44;;;38.82;26.19
50933;BME280;36921;49.006;9.292;2023-05-29T10:18:23;98866.84;;;37.77;27.48
50933;BME280;36921;49.006;9.292;2023-05-29T10:20:50;98868.72;;;37.39;27.32
50933;BME280;36921;49.006;9.292;2023-05-29T10:23:22;98844.97;;;38.00;27.20
50933;BME280;36921;49.006;9.292;2023-05-29T10:25:51;98839.47;;;39.04;26.33
50933;BME280;36921;49.006;9.292;2023-05-29T10:28:18;98864.91;;;39.59;25.59
50933;BME280;36921;49.006;9.292;2023-05-29T10:30:53;98849.09;;;39.51;25.89
50933;BME280;36921;49.006;9.292;2023-05-29T10:36:35;98871.00;;;39.64;26.45
50933;BME280;36921;49.006;9.292;2023-05-29T10:39:03;98863.25;;;40.74;26.02
50933;BME280;36921;49.006;9.292;2023-05-29T10:41:29;98856.34;;;40.57;26.41
50933;BME280;36921;49.006;9.292;2023-05-29T10:44:01;98859.13;;;40.25;25.65
50933;BME280;36921;49.006;9.292;2023-05-29T10:49:18;98864.00;;;40.39;25.54
50933;BME280;36921;49.006;9.292;2023-05-29T10:51:44;98858.63;;;40.05;24.27
50933;BME280;36921;49.006;9.292;2023-05-29T10:54:10;98866.75;;;38.78;24.99
50933;BME280;36921;49.006;9.292;2023-05-29T10:56:35;98840.28;;;39.00;24.41
50933;BME280;36921;49.006;9.292;2023-05-29T10:59:01;98841.94;;;37.52;25.54
50933;BME280;36921;49.006;9.292;2023-05-29T11:01:28;98863.41;;;38.28;25.51
50933;BME280;36921;49.006;9.292;2023-05-29T11:06:40;98844.78;;;38.61;24.29
50933;BME280;36921;49.006;9.292;2023-05-29T11:09:05;98846.66;;;38.08;25.42
50933;BME280;36921;49.006;9.292;2023-05-29T11:11:33;98851.06;;;38.43;25.20
50933;BME280;36921;49.006;9.292;2023-05-29T11:14:03;98838.59;;;38.89;25.30
50933;BME280;36921;49.006;9.292;2023-05-29T11:18:55;98859.19;;;38.48;25.46
50933;BME280;36921;49.006;9.292;2023-05-29T11:26:45;98848.63;;;41.04;23.88
50933;BME280;36921;49.006;9.292;2023-05-29T11:29:10;98853.53;;;40.79;24.86
50933;BME280;36921;49.006;9.292;2023-05-29T11:31:39;98832.06;;;40.67;24.55
50933;BME280;36921;49.006;9.292;2023-05-29T11:34:09;98854.75;;;40.67;25.12
50933;BME280;36921;49.006;9.292;2023-05-29T11:36:37;98853.09;;;41.27;23.36
50933;BME280;36921;49.006;9.292;2023-05-29T11:39:03;98839.22;;;40.07;23.35
50933;BME280;36921;49.006;9.292;2023-05-29T11:41:29;98854.03;;;39.64;23.62
50933;BME280;36921;49.006;9.292;2023-05-29T11:43:59;98847.91;;;39.52;23.36
50933;BME280;36921;49.006;9.292;2023-05-29T11:46:24;98843.38;;;40.85;22.98
50933;BME280;36921;49.006;9.292;2023-05-29T11:48:51;98841.75;;;40.41;22.35
50933;BME280;36921;49.006;9.292;2023-05-29T11:51:17;98828.97;;;39.70;22.74
50933;BME280;36921;49.006;9.292;2023-05-29T11:53:43;98845.19;;;39.11;22.64
50933;BME280;36921;49.006;9.292;2023-05-29T11:56:09;98825.56;;;38.36;22.73
50933;BME280;36921;49.006;9.292;2023-05-29T11:58:39;98832.78;;;37.62;23.01
50933;BME280;36921;49.006;9.292;2023-05-29T12:01:06;98824.69;;;37.04;24.42
50933;BME280;36921;49.006;9.292;2023-05-29T12:03:43;98860.97;;;36.13;23.92
50933;BME280;36921;49.006;9.292;2023-05-29T12:06:09;98854.72;;;37.46;24.58
50933;BME280;36921;49.006;9.292;2023-05-29T12:08:36;98853.03;;;38.39;23.49
50933;BME280;36921;49.006;9.292;2023-05-29T12:11:02;98850.56;;;37.63;23.21
50933;BME280;36921;49.006;9.292;2023-05-29T12:13:27;98823.97;;;38.01;24.65
50933;BME280;36921;49.006;9.292;2023-05-29T12:15:56;98847.47;;;39.46;23.78
50933;BME280;36921;49.006;9.292;2023-05-29T12:18:22;98828.00;;;37.97;24.79
50933;BME280;36921;49.006;9.292;2023-05-29T12:20:48;98842.22;;;39.52;24.35
50933;BME280;36921;49.006;9.292;2023-05-29T12:23:13;98827.28;;;39.55;23.65
50933;BME280;36921;49.006;9.292;2023-05-29T12:25:39;98824.53;;;39.76;24.01
50933;BME280;36921;49.006;9.292;2023-05-29T12:28:05;98838.13;;;39.38;23.49
50933;BME280;36921;49.006;9.292;2023-05-29T12:30:30;98834.88;;;39.36;23.51
50933;BME280;36921;49.006;9.292;2023-05-29T12:32:56;98833.94;;;39.18;24.13
50933;BME280;36921;49.006;9.292;2023-05-29T12:35:23;98852.50;;;39.19;23.60
50933;BME280;36921;49.006;9.292;2023-05-29T12:37:59;98842.22;;;39.52;22.84
50933;BME280;36921;49.006;9.292;2023-05-29T12:40:27;98840.22;;;39.56;23.45
50933;BME280;36921;49.006;9.292;2023-05-29T12:43:03;98828.22;;;39.80;23.65
50933;BME280;36921;49.006;9.292;2023-05-29T12:45:31;98832.69;;;39.15;23.06
50933;BME280;36921;49.006;9.292;2023-05-29T12:47:59;98824.69;;;39.28;23.92
50933;BME280;36921;49.006;9.292;2023-05-29T12:50:31;98822.50;;;39.73;23.12
50933;BME280;36921;49.006;9.292;2023-05-29T12:53:11;98841.75;;;40.51;22.84
50933;BME280;36921;49.006;9.292;2023-05-29T12:55:39;98832.31;;;40.01;23.28
50933;BME280;36921;49.006;9.292;2023-05-29T12:58:09;98841.13;;;39.12;23.33
50933;BME280;36921;49.006;9.292;2023-05-29T13:00:36;98819.63;;;38.07;23.84
50933;BME280;36921;49.006;9.292;2023-05-29T13:03:02;98844.94;;;37.97;23.71
50933;BME280;36921;49.006;9.292;2023-05-29T13:05:28;98833.84;;;39.07;23.67
50933;BME280;36921;49.006;9.292;2023-05-29T13:07:53;98838.66;;;39.69;22.40
50933;BME280;36921;49.006;9.292;2023-05-29T13:10:19;98838.09;;;38.39;23.17
50933;BME280;36921;49.006;9.292;2023-05-29T13:12:46;98835.78;;;38.92;23.62
50933;BME280;36921;49.006;9.292;2023-05-29T13:15:13;98827.25;;;38.03;24.33
50933;BME280;36921;49.006;9.292;2023-05-29T13:17:39;98834.00;;;37.65;24.51
50933;BME280;36921;49.006;9.292;2023-05-29T13:20:12;98806.59;;;37.35;24.20